Time;durP1;ratioP1;P1;durP2;ratioP2;P2;SDS_P1;SDS_P2;PMS_P1;PMS_P2;Temp;Humidity;BMP_temperature;BMP_pressure;BME280_temperature;BME280_humidity;BME280_pressure;Samples;Min_cycle;Max_cycle;Signal;HPM_P1;HPM_P2
2022/01/17 00:00:00;;;;;;;795.72;399.05;;;;;;;;;;5009826;28;20468;-77
2022/01/17 00:02:28;;;;;;;802.72;401.13;;;;;;;;;;5017606;28;20032;-76
2022/01/17 00:04:54;;;;;;;799.28;405.30;;;;;;;;;;5044509;28;20102;-75
2022/01/17 00:07:20;;;;;;;799.22;406.67;;;;;;;;;;5047194;28;20024;-76
2022/01/17 00:09:46;;;;;;;798.85;409.20;;;;;;;;;;5046003;28;20036;-76
2022/01/17 00:12:12;;;;;;;797.28;399.73;;;;;;;;;;5046489;28;20327;-76
2022/01/17 00:14:42;;;;;;;799.22;406.52;;;;;;;;;;5012419;28;20041;-76
2022/01/17 00:19:43;;;;;;;798.13;400.52;;;;;;;;;;5042604;28;20041;-76
2022/01/17 00:22:09;;;;;;;796.80;400.48;;;;;;;;;;5028018;28;20028;-76
2022/01/17 00:24:35;;;;;;;799.50;405.63;;;;;;;;;;5045888;28;20032;-76
2022/01/17 00:27:01;;;;;;;801.50;409.02;;;;;;;;;;5037970;28;20033;-76
2022/01/17 00:29:28;;;;;;;802.30;409.48;;;;;;;;;;5022667;28;20043;-77
2022/01/17 00:31:54;;;;;;;800.50;403.30;;;;;;;;;;5028027;28;20489;-76
2022/01/17 00:34:20;;;;;;;800.17;406.08;;;;;;;;;;5037456;28;20029;-76
2022/01/17 00:36:46;;;;;;;799.80;400.13;;;;;;;;;;5044349;28;20461;-76
2022/01/17 00:39:12;;;;;;;799.45;403.45;;;;;;;;;;5028237;28;20045;-77
2022/01/17 00:41:38;;;;;;;798.00;400.52;;;;;;;;;;5046332;28;20098;-76
2022/01/17 00:44:04;;;;;;;800.53;401.75;;;;;;;;;;5046456;28;20470;-75
2022/01/17 00:46:31;;;;;;;796.78;395.50;;;;;;;;;;5046720;28;20029;-76
2022/01/17 00:48:57;;;;;;;796.35;393.88;;;;;;;;;;5024997;28;20033;-76
2022/01/17 00:51:23;;;;;;;801.90;403.05;;;;;;;;;;5045820;28;20032;-75
2022/01/17 00:53:49;;;;;;;800.10;401.63;;;;;;;;;;5045671;28;20036;-76
2022/01/17 00:56:15;;;;;;;794.35;387.98;;;;;;;;;;5028271;28;20032;-76
2022/01/17 00:58:41;;;;;;;797.80;395.83;;;;;;;;;;5027742;28;20151;-76
2022/01/17 01:01:08;;;;;;;800.40;398.00;;;;;;;;;;5027561;28;20128;-76
2022/01/17 01:03:34;;;;;;;796.75;393.75;;;;;;;;;;5045542;28;20029;-76
2022/01/17 01:06:00;;;;;;;801.05;399.88;;;;;;;;;;5044317;28;20037;-76
2022/01/17 01:08:26;;;;;;;800.17;394.98;;;;;;;;;;5046325;28;20033;-76
2022/01/17 01:10:52;;;;;;;799.08;400.52;;;;;;;;;;5028451;28;20087;-76
2022/01/17 01:13:22;;;;;;;798.75;396.95;;;;;;;;;;5030527;28;20034;-77
2022/01/17 01:16:09;;;;;;;800.50;395.45;;;;;;;;;;5025264;28;20637;-76
2022/01/17 01:29:14;;;;;;;796.85;387.40;;;;;;;;;;5028247;28;20044;-76
2022/01/17 01:31:51;;;;;;;791.97;376.17;;;;;;;;;;5027806;28;20017;-76
2022/01/17 01:34:20;;;;;;;795.38;384.85;;;;;;;;;;5045399;28;20025;-76
2022/01/17 01:36:48;;;;;;;794.47;385.85;;;;;;;;;;5044040;28;20085;-76
2022/01/17 01:39:22;;;;;;;795.20;383.25;;;;;;;;;;5045356;28;20392;-76
2022/01/17 01:41:48;;;;;;;795.78;378.90;;;;;;;;;;5027965;28;20477;-76
2022/01/17 01:44:15;;;;;;;795.58;379.55;;;;;;;;;;5048906;28;20538;-76
2022/01/17 01:46:41;;;;;;;795.25;380.55;;;;;;;;;;5050067;28;20040;-75
2022/01/17 01:49:07;;;;;;;795.28;379.73;;;;;;;;;;5031957;28;20028;-76
2022/01/17 01:51:33;;;;;;;790.78;368.98;;;;;;;;;;5031095;28;20067;-76
2022/01/17 01:53:59;;;;;;;792.83;372.80;;;;;;;;;;5049583;28;20049;-76
2022/01/17 01:56:25;;;;;;;796.03;381.27;;;;;;;;;;5049297;28;20032;-76
2022/01/17 01:58:51;;;;;;;793.70;376.38;;;;;;;;;;5032268;28;20091;-76
2022/01/17 02:01:17;;;;;;;792.08;372.92;;;;;;;;;;5049672;28;20063;-76
2022/01/17 02:03:43;;;;;;;796.22;377.50;;;;;;;;;;5031572;28;20036;-76
2022/01/17 02:06:09;;;;;;;792.28;367.65;;;;;;;;;;5035563;28;20111;-76
2022/01/17 02:08:35;;;;;;;797.45;379.92;;;;;;;;;;5030139;28;20087;-77
2022/01/17 02:11:01;;;;;;;796.85;379.40;;;;;;;;;;5029382;28;20477;-76
2022/01/17 02:13:27;;;;;;;796.53;377.38;;;;;;;;;;5031246;28;20040;-77
2022/01/17 02:16:04;;;;;;;793.75;373.02;;;;;;;;;;5049463;28;20087;-76
2022/01/17 02:18:31;;;;;;;798.35;381.88;;;;;;;;;;5031853;28;20060;-76
2022/01/17 02:23:35;;;;;;;797.25;381.02;;;;;;;;;;5045370;28;20448;-77
2022/01/17 02:26:02;;;;;;;798.67;381.20;;;;;;;;;;5051766;28;20145;-76
2022/01/17 02:28:28;;;;;;;801.00;385.92;;;;;;;;;;5021058;28;20378;-76
2022/01/17 02:30:55;;;;;;;796.75;374.80;;;;;;;;;;5032797;28;20034;-77
2022/01/17 02:33:21;;;;;;;797.13;373.40;;;;;;;;;;5031064;28;20492;-76
2022/01/17 02:35:47;;;;;;;795.53;369.60;;;;;;;;;;5029232;28;20028;-76
2022/01/17 02:38:14;;;;;;;799.10;376.33;;;;;;;;;;5049780;28;20041;-77
2022/01/17 02:40:40;;;;;;;798.63;373.92;;;;;;;;;;5049069;28;20039;-76
2022/01/17 02:43:07;;;;;;;797.65;380.80;;;;;;;;;;5031542;28;20039;-77
2022/01/17 02:45:37;;;;;;;794.08;369.55;;;;;;;;;;5049050;28;20037;-76
2022/01/17 02:48:12;;;;;;;797.78;363.35;;;;;;;;;;5031514;28;20041;-76
2022/01/17 02:50:39;;;;;;;797.58;369.20;;;;;;;;;;5030836;28;20029;-76
2022/01/17 02:53:08;;;;;;;795.80;366.17;;;;;;;;;;5032094;28;20029;-76
2022/01/17 02:55:34;;;;;;;800.25;373.02;;;;;;;;;;5030357;28;20449;-76
2022/01/17 02:58:00;;;;;;;796.88;369.45;;;;;;;;;;5047721;28;20039;-77
2022/01/17 03:00:26;;;;;;;796.95;371.77;;;;;;;;;;5030875;28;20025;-76
2022/01/17 03:02:53;;;;;;;799.10;378.17;;;;;;;;;;5045420;28;20392;-75
2022/01/17 03:05:19;;;;;;;797.10;370.90;;;;;;;;;;5029268;28;20031;-77
2022/01/17 03:07:46;;;;;;;794.10;361.33;;;;;;;;;;5031027;28;20764;-77
2022/01/17 03:10:26;;;;;;;793.95;366.63;;;;;;;;;;5048512;28;20083;-77
2022/01/17 03:12:52;;;;;;;794.78;357.73;;;;;;;;;;5047505;28;20037;-76
2022/01/17 03:15:21;;;;;;;790.15;352.90;;;;;;;;;;5048934;28;20548;-76
2022/01/17 03:17:48;;;;;;;790.97;348.90;;;;;;;;;;5034549;28;20033;-76
2022/01/17 03:20:14;;;;;;;789.38;349.90;;;;;;;;;;5023371;28;20060;-77
2022/01/17 03:22:41;;;;;;;793.33;356.10;;;;;;;;;;5047576;28;20071;-77
2022/01/17 03:25:07;;;;;;;791.05;353.30;;;;;;;;;;5010682;28;20485;-76
2022/01/17 03:27:34;;;;;;;790.67;356.60;;;;;;;;;;5039336;28;20532;-76
2022/01/17 03:30:00;;;;;;;789.50;349.60;;;;;;;;;;5047985;28;20039;-76
2022/01/17 03:32:26;;;;;;;788.97;346.52;;;;;;;;;;5030041;28;20028;-75
2022/01/17 03:34:55;;;;;;;790.53;354.77;;;;;;;;;;5029496;28;20047;-77
2022/01/17 03:37:21;;;;;;;788.10;347.63;;;;;;;;;;5047608;28;20025;-76
2022/01/17 03:39:47;;;;;;;789.50;348.35;;;;;;;;;;5030420;28;20131;-77
2022/01/17 03:42:14;;;;;;;789.17;351.85;;;;;;;;;;5048967;28;20484;-76
2022/01/17 03:44:40;;;;;;;791.38;353.30;;;;;;;;;;5047786;28;20454;-75
2022/01/17 03:47:06;;;;;;;789.05;346.42;;;;;;;;;;5046956;28;20100;-76
2022/01/17 03:49:32;;;;;;;787.70;348.27;;;;;;;;;;5029462;28;20520;-76
2022/01/17 03:51:58;;;;;;;790.92;350.10;;;;;;;;;;5028174;28;20033;-76
2022/01/17 03:54:24;;;;;;;786.55;344.38;;;;;;;;;;5029054;28;20067;-76
2022/01/17 03:56:50;;;;;;;787.63;343.15;;;;;;;;;;5047384;28;20060;-77
2022/01/17 03:59:16;;;;;;;786.30;345.45;;;;;;;;;;5029473;28;20025;-77
2022/01/17 04:01:42;;;;;;;788.75;342.10;;;;;;;;;;5046813;28;20603;-76
2022/01/17 04:04:08;;;;;;;789.25;342.98;;;;;;;;;;5047758;28;20068;-76
2022/01/17 04:06:34;;;;;;;787.50;340.75;;;;;;;;;;5044276;28;20029;-76
2022/01/17 04:09:00;;;;;;;782.35;329.02;;;;;;;;;;5028885;28;20098;-76
2022/01/17 04:11:26;;;;;;;783.60;334.80;;;;;;;;;;5027848;28;20029;-76
2022/01/17 04:13:52;;;;;;;781.80;331.75;;;;;;;;;;5047023;28;20037;-77
2022/01/17 04:16:18;;;;;;;784.85;339.60;;;;;;;;;;5028940;28;20086;-76
2022/01/17 04:18:44;;;;;;;784.83;334.83;;;;;;;;;;5029227;28;20378;-77
2022/01/17 04:21:10;;;;;;;780.38;326.52;;;;;;;;;;5029434;28;20319;-76
2022/01/17 04:23:36;;;;;;;782.28;327.70;;;;;;;;;;5046762;28;20040;-76
2022/01/17 04:26:02;;;;;;;784.80;329.98;;;;;;;;;;5028646;28;20452;-75
2022/01/17 04:28:28;;;;;;;779.75;326.80;;;;;;;;;;5046607;28;20040;-76
2022/01/17 04:30:54;;;;;;;780.10;326.10;;;;;;;;;;5047125;28;20025;-76
2022/01/17 04:33:20;;;;;;;779.90;328.67;;;;;;;;;;5027433;28;20040;-77
2022/01/17 04:35:46;;;;;;;778.08;322.05;;;;;;;;;;5027059;28;20029;-77
2022/01/17 04:38:13;;;;;;;778.70;320.85;;;;;;;;;;5045813;28;20443;-76
2022/01/17 04:40:40;;;;;;;779.10;325.70;;;;;;;;;;5028901;28;20044;-77
2022/01/17 04:43:43;;;;;;;782.15;326.92;;;;;;;;;;5041486;28;20029;-76
2022/01/17 04:46:07;;;;;;;778.00;313.52;;;;;;;;;;5045779;28;20428;-76
2022/01/17 04:48:33;;;;;;;774.00;310.75;;;;;;;;;;5021187;28;20206;-77
2022/01/17 04:51:00;;;;;;;779.50;328.95;;;;;;;;;;5009471;28;20025;-75
2022/01/17 04:53:27;;;;;;;775.53;318.02;;;;;;;;;;5040657;28;20064;-76
2022/01/17 04:55:53;;;;;;;778.72;324.42;;;;;;;;;;5046584;28;20057;-76
2022/01/17 04:58:19;;;;;;;778.92;329.17;;;;;;;;;;5028582;28;20130;-77
2022/01/17 05:00:48;;;;;;;775.25;319.92;;;;;;;;;;5028952;28;20348;-77
2022/01/17 05:03:18;;;;;;;776.40;323.48;;;;;;;;;;5043665;28;20385;-77
2022/01/17 05:05:44;;;;;;;778.58;330.83;;;;;;;;;;5025356;28;20172;-77
2022/01/17 05:08:11;;;;;;;778.22;323.85;;;;;;;;;;5028933;28;20033;-76
2022/01/17 05:10:37;;;;;;;773.58;317.67;;;;;;;;;;5046421;28;20404;-76
2022/01/17 05:13:03;;;;;;;775.35;318.40;;;;;;;;;;5036091;28;20548;-76
2022/01/17 05:15:34;;;;;;;776.47;320.67;;;;;;;;;;5046329;28;20099;-77
2022/01/17 05:20:36;;;;;;;773.90;315.70;;;;;;;;;;5026725;28;20056;-76
2022/01/17 05:23:02;;;;;;;774.40;318.35;;;;;;;;;;5020389;28;20029;-77
2022/01/17 05:25:28;;;;;;;775.35;317.15;;;;;;;;;;5046609;28;20242;-77
2022/01/17 05:27:54;;;;;;;774.60;316.77;;;;;;;;;;5046390;28;20132;-76
2022/01/17 05:30:21;;;;;;;773.25;316.67;;;;;;;;;;5046145;28;20032;-78
2022/01/17 05:32:47;;;;;;;771.90;314.58;;;;;;;;;;5045867;28;20424;-76
2022/01/17 05:35:14;;;;;;;772.45;315.58;;;;;;;;;;5025708;28;20028;-76
2022/01/17 05:37:40;;;;;;;775.47;320.08;;;;;;;;;;5028159;28;20029;-76
2022/01/17 05:40:07;;;;;;;772.92;319.83;;;;;;;;;;5027754;28;20040;-76
2022/01/17 05:42:33;;;;;;;771.55;318.08;;;;;;;;;;5027051;28;20044;-77
2022/01/17 05:44:59;;;;;;;775.10;317.95;;;;;;;;;;5028334;28;20119;-76
2022/01/17 05:47:25;;;;;;;774.40;322.83;;;;;;;;;;5027974;28;20120;-76
2022/01/17 05:49:51;;;;;;;774.97;323.98;;;;;;;;;;5027184;28;20123;-75
2022/01/17 05:52:17;;;;;;;768.65;316.55;;;;;;;;;;5045510;28;20545;-76
2022/01/17 05:54:44;;;;;;;773.15;319.80;;;;;;;;;;5018394;28;20052;-77
2022/01/17 05:57:10;;;;;;;769.20;312.02;;;;;;;;;;5008073;28;20034;-77
2022/01/17 05:59:36;;;;;;;771.53;321.48;;;;;;;;;;5033555;28;20098;-76
2022/01/17 06:02:02;;;;;;;775.63;324.10;;;;;;;;;;5046081;28;20517;-76
2022/01/17 06:04:28;;;;;;;772.25;320.10;;;;;;;;;;5045772;28;20112;-77
2022/01/17 06:06:54;;;;;;;769.58;314.70;;;;;;;;;;5044152;28;20544;-76
2022/01/17 06:09:20;;;;;;;772.30;324.88;;;;;;;;;;5026942;28;20032;-78
2022/01/17 06:11:46;;;;;;;769.65;320.35;;;;;;;;;;5045450;28;20033;-76
2022/01/17 06:14:17;;;;;;;775.78;331.08;;;;;;;;;;5027606;28;20102;-76
2022/01/17 06:16:43;;;;;;;770.92;328.80;;;;;;;;;;5027760;28;20040;-77
2022/01/17 06:19:09;;;;;;;771.72;329.58;;;;;;;;;;5045396;28;20792;-76
2022/01/17 06:21:35;;;;;;;772.95;325.15;;;;;;;;;;5027360;28;20032;-77
2022/01/17 06:24:02;;;;;;;771.65;327.38;;;;;;;;;;5045725;28;20526;-77
2022/01/17 06:26:29;;;;;;;768.63;321.20;;;;;;;;;;5044878;28;20037;-76
2022/01/17 06:28:55;;;;;;;768.17;322.85;;;;;;;;;;5027426;28;20612;-76
2022/01/17 06:31:21;;;;;;;772.17;326.95;;;;;;;;;;5030285;28;20095;-76
2022/01/17 06:33:47;;;;;;;768.38;323.80;;;;;;;;;;5030968;28;20048;-76
2022/01/17 06:36:13;;;;;;;768.00;322.35;;;;;;;;;;5028630;28;20033;-76
2022/01/17 06:38:39;;;;;;;767.38;322.63;;;;;;;;;;5048073;28;20100;-77
2022/01/17 06:41:05;;;;;;;771.05;334.23;;;;;;;;;;5020308;28;20533;-75
2022/01/17 06:43:31;;;;;;;772.38;335.33;;;;;;;;;;5019434;28;20044;-77
2022/01/17 06:45:57;;;;;;;771.10;334.88;;;;;;;;;;5048950;28;20115;-76
2022/01/17 06:48:23;;;;;;;768.08;329.70;;;;;;;;;;5049255;28;20477;-77
2022/01/17 06:50:49;;;;;;;765.20;325.50;;;;;;;;;;5028642;28;20028;-77
2022/01/17 06:53:15;;;;;;;766.85;326.65;;;;;;;;;;5028311;28;20464;-77
2022/01/17 06:55:41;;;;;;;764.92;324.25;;;;;;;;;;5022655;28;20037;-75
2022/01/17 06:58:07;;;;;;;769.10;330.48;;;;;;;;;;5011441;28;20072;-76
2022/01/17 07:00:34;;;;;;;763.78;322.50;;;;;;;;;;5035122;28;20040;-77
2022/01/17 07:03:01;;;;;;;763.20;319.05;;;;;;;;;;5048812;28;20483;-76
2022/01/17 07:05:27;;;;;;;760.55;313.98;;;;;;;;;;5028911;28;20036;-77
2022/01/17 07:07:53;;;;;;;758.92;316.70;;;;;;;;;;5048559;28;20040;-76
2022/01/17 07:10:19;;;;;;;762.78;321.92;;;;;;;;;;5048625;28;20067;-76
2022/01/17 07:12:46;;;;;;;761.65;315.23;;;;;;;;;;5048541;28;20467;-77
2022/01/17 07:15:12;;;;;;;761.60;314.33;;;;;;;;;;5030972;28;20060;-76
2022/01/17 07:17:38;;;;;;;766.22;327.67;;;;;;;;;;5030932;28;20067;-78
2022/01/17 07:20:05;;;;;;;761.92;318.63;;;;;;;;;;5030883;28;20473;-76
2022/01/17 07:22:32;;;;;;;764.25;325.40;;;;;;;;;;5013039;28;20120;-77
2022/01/17 07:25:00;;;;;;;760.40;319.42;;;;;;;;;;5029036;28;20072;-76
2022/01/17 07:27:26;;;;;;;762.85;320.17;;;;;;;;;;5027460;28;20086;-76
2022/01/17 07:29:52;;;;;;;763.92;323.08;;;;;;;;;;5049099;28;20629;-75
2022/01/17 07:32:18;;;;;;;764.20;324.42;;;;;;;;;;5048573;28;20116;-76
2022/01/17 07:34:44;;;;;;;762.80;323.73;;;;;;;;;;5028311;28;20128;-76
2022/01/17 07:37:10;;;;;;;763.58;323.15;;;;;;;;;;5028287;28;20033;-76
2022/01/17 07:39:36;;;;;;;765.42;323.05;;;;;;;;;;5048398;28;20025;-76
2022/01/17 07:42:02;;;;;;;767.08;328.67;;;;;;;;;;5029853;28;20063;-77
2022/01/17 07:44:29;;;;;;;764.63;326.20;;;;;;;;;;5029371;28;20400;-75
2022/01/17 07:46:58;;;;;;;764.38;322.27;;;;;;;;;;5029654;28;20044;-77
2022/01/17 07:49:25;;;;;;;774.10;328.10;;;;;;;;;;5029546;28;20085;-77
2022/01/17 07:51:59;;;;;;;763.58;326.50;;;;;;;;;;5029641;28;20029;-77
2022/01/17 07:54:26;;;;;;;761.47;322.75;;;;;;;;;;5047065;28;20038;-76
2022/01/17 07:56:53;;;;;;;766.85;328.40;;;;;;;;;;5048413;28;20035;-76
2022/01/17 07:59:19;;;;;;;770.53;335.63;;;;;;;;;;5048702;28;20171;-77
2022/01/17 08:01:45;;;;;;;768.35;336.35;;;;;;;;;;5026088;28;20086;-77
2022/01/17 08:04:11;;;;;;;771.53;338.83;;;;;;;;;;5031450;28;20033;-77
2022/01/17 08:06:39;;;;;;;768.38;335.15;;;;;;;;;;5025490;28;20025;-76
2022/01/17 08:09:07;;;;;;;771.05;341.42;;;;;;;;;;5030724;28;20033;-77
2022/01/17 08:11:33;;;;;;;765.35;329.65;;;;;;;;;;5026893;28;20040;-76
2022/01/17 08:13:59;;;;;;;772.35;347.83;;;;;;;;;;5047344;28;20044;-77
2022/01/17 08:16:25;;;;;;;770.03;346.40;;;;;;;;;;5028732;28;20028;-77
2022/01/17 08:18:52;;;;;;;768.45;339.30;;;;;;;;;;5045298;28;20308;-76
2022/01/17 08:21:19;;;;;;;764.30;326.50;;;;;;;;;;5028851;28;20036;-76
2022/01/17 08:23:46;;;;;;;770.45;339.17;;;;;;;;;;5041686;28;20032;-77
2022/01/17 08:26:12;;;;;;;770.85;341.38;;;;;;;;;;5025532;28;20444;-76
2022/01/17 08:28:38;;;;;;;768.20;345.13;;;;;;;;;;5021507;28;20029;-77
2022/01/17 08:31:04;;;;;;;771.95;349.52;;;;;;;;;;5022504;28;20230;-76
2022/01/17 08:33:30;;;;;;;769.70;345.42;;;;;;;;;;5024173;28;20028;-77
2022/01/17 08:35:56;;;;;;;770.38;344.40;;;;;;;;;;5044579;28;20032;-76
2022/01/17 08:38:23;;;;;;;771.78;348.60;;;;;;;;;;5044784;28;20025;-76
2022/01/17 08:40:49;;;;;;;775.50;353.65;;;;;;;;;;5017896;28;20037;-76
2022/01/17 08:43:15;;;;;;;772.40;350.42;;;;;;;;;;5046185;28;20029;-77
2022/01/17 08:45:43;;;;;;;772.47;350.55;;;;;;;;;;5040313;28;20116;-76
2022/01/17 08:48:10;;;;;;;769.58;343.10;;;;;;;;;;5024610;28;20575;-77
2022/01/17 08:50:36;;;;;;;771.88;350.33;;;;;;;;;;5023888;28;20959;-77
2022/01/17 08:53:02;;;;;;;775.17;353.52;;;;;;;;;;5029585;28;20033;-76
2022/01/17 08:55:28;;;;;;;773.17;352.95;;;;;;;;;;5030784;28;20062;-76
2022/01/17 08:57:54;;;;;;;769.95;339.15;;;;;;;;;;5029383;28;20036;-76
2022/01/17 09:00:21;;;;;;;774.38;357.70;;;;;;;;;;5029505;28;20411;-76
2022/01/17 09:02:47;;;;;;;773.13;350.25;;;;;;;;;;5047335;28;20032;-77
2022/01/17 09:05:14;;;;;;;776.05;360.13;;;;;;;;;;5010114;28;20041;-76
2022/01/17 09:07:40;;;;;;;777.72;361.90;;;;;;;;;;5047057;28;20041;-77
2022/01/17 09:10:07;;;;;;;773.58;356.70;;;;;;;;;;5031050;28;20112;-78
2022/01/17 09:12:33;;;;;;;777.80;361.92;;;;;;;;;;5032401;28;20082;-76
2022/01/17 09:15:00;;;;;;;778.63;361.83;;;;;;;;;;5050315;28;20033;-77
2022/01/17 09:17:26;;;;;;;779.83;371.58;;;;;;;;;;5032277;28;20025;-76
2022/01/17 09:19:52;;;;;;;780.40;370.45;;;;;;;;;;5032121;28;20309;-76
2022/01/17 09:22:18;;;;;;;780.05;371.15;;;;;;;;;;5032460;28;20025;-78
2022/01/17 09:24:44;;;;;;;777.15;366.67;;;;;;;;;;5049751;28;20033;-77
2022/01/17 09:27:30;;;;;;;777.75;367.15;;;;;;;;;;5050382;28;20085;-75
2022/01/17 09:29:56;;;;;;;778.53;364.98;;;;;;;;;;5032057;28;20028;-77
2022/01/17 09:32:22;;;;;;;780.40;368.98;;;;;;;;;;5050485;28;20048;-77
2022/01/17 09:34:48;;;;;;;783.90;383.05;;;;;;;;;;5032227;28;20112;-78
2022/01/17 09:37:14;;;;;;;784.80;387.55;;;;;;;;;;5047531;28;20442;-77
2022/01/17 09:39:43;;;;;;;784.35;384.00;;;;;;;;;;5032155;28;20025;-76
2022/01/17 09:42:11;;;;;;;786.05;388.15;;;;;;;;;;5032654;28;20040;-77
2022/01/17 09:44:37;;;;;;;783.83;388.27;;;;;;;;;;5047667;28;20029;-75
2022/01/17 09:47:09;;;;;;;785.95;388.02;;;;;;;;;;5047925;28;20143;-76
2022/01/17 09:52:13;;;;;;;786.05;389.10;;;;;;;;;;5039920;28;20120;-78
2022/01/17 09:54:41;;;;;;;781.85;383.08;;;;;;;;;;5025466;28;20041;-78
2022/01/17 09:57:08;;;;;;;800.40;396.92;;;;;;;;;;5023713;28;20037;-78
2022/01/17 09:59:35;;;;;;;787.17;394.00;;;;;;;;;;5025991;28;20118;-78
2022/01/17 10:02:01;;;;;;;782.42;381.48;;;;;;;;;;5031389;28;20500;-76
2022/01/17 10:04:27;;;;;;;787.25;395.58;;;;;;;;;;5051378;28;20028;-76
2022/01/17 10:06:54;;;;;;;787.15;389.98;;;;;;;;;;5034335;28;20965;-76
2022/01/17 10:09:24;;;;;;;788.45;396.77;;;;;;;;;;5054125;28;20110;-76
2022/01/17 10:12:03;;;;;;;788.08;397.08;;;;;;;;;;5051897;28;20107;-76
2022/01/17 10:14:31;;;;;;;789.05;399.08;;;;;;;;;;5030420;28;20029;-77
2022/01/17 10:16:57;;;;;;;790.28;403.58;;;;;;;;;;5054254;28;20021;-77
2022/01/17 10:19:25;;;;;;;789.53;402.85;;;;;;;;;;5035192;28;20024;-77
2022/01/17 10:22:07;;;;;;;791.50;404.52;;;;;;;;;;5053062;28;20024;-77
2022/01/17 10:24:52;;;;;;;795.40;399.77;;;;;;;;;;5038820;28;20033;-76
2022/01/17 10:35:30;;;;;;;787.25;391.52;;;;;;;;;;5038452;28;20075;-76
2022/01/17 10:37:56;;;;;;;789.85;399.48;;;;;;;;;;5050566;28;20032;-81
2022/01/17 10:40:30;;;;;;;791.95;409.88;;;;;;;;;;5032439;28;20036;-76
2022/01/17 10:42:58;;;;;;;790.72;405.95;;;;;;;;;;5047883;28;20159;-77
2022/01/17 10:45:28;;;;;;;793.25;407.13;;;;;;;;;;5027619;28;20431;-78
2022/01/17 10:47:56;;;;;;;797.08;421.80;;;;;;;;;;5027338;28;20347;-76
2022/01/17 10:50:27;;;;;;;794.50;417.75;;;;;;;;;;5026282;28;20041;-78
2022/01/17 10:52:54;;;;;;;797.65;424.27;;;;;;;;;;5048606;28;20625;-78
2022/01/17 10:55:20;;;;;;;792.40;411.27;;;;;;;;;;5049132;28;20574;-77
2022/01/17 10:57:48;;;;;;;794.85;417.20;;;;;;;;;;5029109;28;20569;-79
2022/01/17 11:00:17;;;;;;;798.53;423.55;;;;;;;;;;5041474;28;20439;-78
2022/01/17 11:02:45;;;;;;;795.97;421.02;;;;;;;;;;5042245;28;20508;-77
2022/01/17 11:05:13;;;;;;;798.15;424.60;;;;;;;;;;5023835;28;20037;-78
2022/01/17 11:07:42;;;;;;;801.03;429.50;;;;;;;;;;5030091;28;20477;-79
2022/01/17 11:10:39;;;;;;;797.90;427.85;;;;;;;;;;5033523;28;20120;-78
2022/01/17 11:13:07;;;;;;;795.97;415.65;;;;;;;;;;5033636;28;20121;-78
2022/01/17 11:15:34;;;;;;;796.75;420.25;;;;;;;;;;5031538;28;20114;-79
2022/01/17 11:18:05;;;;;;;792.72;410.88;;;;;;;;;;5046856;28;20033;-77
2022/01/17 11:20:32;;;;;;;796.47;421.20;;;;;;;;;;5047425;28;20593;-78
2022/01/17 11:22:59;;;;;;;797.90;426.92;;;;;;;;;;5029199;28;20104;-78
2022/01/17 11:25:28;;;;;;;799.15;427.25;;;;;;;;;;5028502;28;20029;-79
2022/01/17 11:27:54;;;;;;;800.33;431.63;;;;;;;;;;5047678;28;20424;-79
2022/01/17 11:30:21;;;;;;;800.03;430.15;;;;;;;;;;5042799;28;20114;-80
2022/01/17 11:32:48;;;;;;;795.03;422.02;;;;;;;;;;5044545;28;20017;-80
2022/01/17 11:35:16;;;;;;;800.65;434.65;;;;;;;;;;5042370;28;20083;-77
2022/01/17 11:37:44;;;;;;;798.25;421.67;;;;;;;;;;5029135;28;20186;-78
2022/01/17 11:40:11;;;;;;;832.60;438.88;;;;;;;;;;5025883;28;20485;-78
2022/01/17 11:42:42;;;;;;;800.20;431.92;;;;;;;;;;5026885;28;20432;-81
2022/01/17 11:45:34;;;;;;;802.80;436.10;;;;;;;;;;5031792;28;20029;-77
2022/01/17 11:48:07;;;;;;;800.08;426.70;;;;;;;;;;5046932;28;20124;-81
2022/01/17 11:50:36;;;;;;;803.42;436.42;;;;;;;;;;5030184;28;20052;-77
2022/01/17 11:53:12;;;;;;;802.03;435.08;;;;;;;;;;5028545;28;20045;-79
2022/01/17 11:55:42;;;;;;;799.88;432.98;;;;;;;;;;5011636;28;20618;-78
2022/01/17 11:58:22;;;;;;;806.00;440.10;;;;;;;;;;5010011;28;20513;-81
2022/01/17 12:00:48;;;;;;;;;;;;;;;;;;5010320;28;20025;-78
2022/01/17 12:03:21;;;;;;;794.38;408.58;;;;;;;;;;5012863;28;19909;-80
2022/01/17 12:05:47;;;;;;;798.92;423.90;;;;;;;;;;5007156;28;20021;-79
2022/01/17 12:08:18;;;;;;;802.05;427.50;;;;;;;;;;5002427;28;20030;-79
2022/01/17 12:10:46;;;;;;;804.42;445.15;;;;;;;;;;5005867;28;20108;-81
2022/01/17 12:13:17;;;;;;;808.58;452.60;;;;;;;;;;5004660;28;20438;-78
2022/01/17 12:15:59;;;;;;;801.05;437.95;;;;;;;;;;5005032;28;20040;-79
2022/01/17 12:18:35;;;;;;;805.70;445.27;;;;;;;;;;5001603;28;20034;-77
2022/01/17 12:21:25;;;;;;;801.42;432.90;;;;;;;;;;4998507;28;20422;-78
2022/01/17 12:23:51;;;;;;;795.53;418.00;;;;;;;;;;4995183;28;20437;-79
2022/01/17 12:26:24;;;;;;;811.03;439.80;;;;;;;;;;5006735;28;20116;-79
2022/01/17 12:28:54;;;;;;;800.38;433.75;;;;;;;;;;5003063;28;20117;-82
2022/01/17 12:31:40;;;;;;;799.45;422.58;;;;;;;;;;4992712;28;20029;-79
2022/01/17 12:34:26;;;;;;;801.75;434.92;;;;;;;;;;4996314;28;20397;-78
2022/01/17 12:36:54;;;;;;;801.60;437.30;;;;;;;;;;4997759;28;20647;-82
2022/01/17 12:39:24;;;;;;;803.60;440.88;;;;;;;;;;4996805;28;20548;-80
2022/01/17 12:41:55;;;;;;;804.95;450.83;;;;;;;;;;5002478;28;20088;-79
2022/01/17 12:44:22;;;;;;;;;;;;;;;;;;5002272;28;20333;-78
2022/01/17 12:46:48;;;;;;;798.20;420.15;;;;;;;;;;5012440;28;20478;-77
2022/01/17 12:49:33;;;;;;;801.10;436.02;;;;;;;;;;5009924;28;20458;-80
2022/01/17 12:52:00;;;;;;;799.58;431.75;;;;;;;;;;5008130;28;20117;-79
2022/01/17 12:54:27;;;;;;;810.83;454.80;;;;;;;;;;5012439;28;20058;-80
2022/01/17 12:56:55;;;;;;;809.63;460.20;;;;;;;;;;5022293;28;20038;-78
2022/01/17 12:59:22;;;;;;;810.00;462.30;;;;;;;;;;5028174;28;20029;-82
2022/01/17 13:01:49;;;;;;;815.33;467.90;;;;;;;;;;5020015;28;20063;-79
2022/01/17 13:04:17;;;;;;;811.65;467.30;;;;;;;;;;5019758;28;20051;-84
2022/01/17 13:06:43;;;;;;;810.63;455.20;;;;;;;;;;5026584;28;20029;-82
2022/01/17 13:09:23;;;;;;;808.45;456.40;;;;;;;;;;5026160;28;20036;-78
2022/01/17 13:11:49;;;;;;;808.67;453.50;;;;;;;;;;5023358;28;20029;-78
2022/01/17 13:14:17;;;;;;;805.85;447.88;;;;;;;;;;5020485;28;20053;-79
2022/01/17 13:16:43;;;;;;;811.63;465.83;;;;;;;;;;5017278;28;20076;-79
2022/01/17 13:19:11;;;;;;;809.85;460.63;;;;;;;;;;5022777;28;20121;-79
2022/01/17 13:21:59;;;;;;;814.10;470.10;;;;;;;;;;5030344;28;20512;-80
2022/01/17 13:26:59;;;;;;;810.00;458.77;;;;;;;;;;5025832;28;20040;-77
2022/01/17 13:29:26;;;;;;;812.40;466.05;;;;;;;;;;5028908;28;20053;-79
2022/01/17 13:31:52;;;;;;;816.75;480.27;;;;;;;;;;5021353;28;20056;-81
2022/01/17 13:34:28;;;;;;;812.85;469.05;;;;;;;;;;5019633;28;20109;-79
2022/01/17 13:36:55;;;;;;;811.33;467.33;;;;;;;;;;5021458;28;20028;-79
2022/01/17 13:39:22;;;;;;;815.53;471.83;;;;;;;;;;5024281;28;20072;-79
2022/01/17 13:41:50;;;;;;;813.92;475.00;;;;;;;;;;5030649;28;20148;-78
2022/01/17 13:44:24;;;;;;;813.38;473.55;;;;;;;;;;5030794;28;20038;-78
2022/01/17 13:47:09;;;;;;;810.33;461.00;;;;;;;;;;5022792;28;20025;-78
2022/01/17 13:49:39;;;;;;;810.50;461.70;;;;;;;;;;5027074;28;20381;-79
2022/01/17 13:52:05;;;;;;;809.35;458.27;;;;;;;;;;5028212;28;20033;-79
2022/01/17 13:54:43;;;;;;;812.05;466.88;;;;;;;;;;5030969;28;20046;-78
2022/01/17 13:57:12;;;;;;;812.50;472.17;;;;;;;;;;5026974;28;20042;-83
2022/01/17 13:59:39;;;;;;;813.27;469.07;;;;;;;;;;5028438;28;20102;-83
2022/01/17 14:02:15;;;;;;;814.30;475.10;;;;;;;;;;5024540;28;20026;-80
2022/01/17 14:04:44;;;;;;;812.28;467.83;;;;;;;;;;5028565;28;20112;-78
2022/01/17 14:07:20;;;;;;;812.55;471.88;;;;;;;;;;5024654;28;20021;-78
2022/01/17 14:09:47;;;;;;;814.08;478.20;;;;;;;;;;5028031;28;20068;-79
2022/01/17 14:12:13;;;;;;;815.17;474.13;;;;;;;;;;5030244;28;20036;-80
2022/01/17 14:14:39;;;;;;;816.80;480.58;;;;;;;;;;5028785;28;20488;-78
2022/01/17 14:17:05;;;;;;;817.05;482.90;;;;;;;;;;5028447;28;20035;-78
2022/01/17 14:19:32;;;;;;;816.63;485.38;;;;;;;;;;5029893;28;20039;-85
2022/01/17 14:22:04;;;;;;;816.55;481.95;;;;;;;;;;5028804;28;20021;-80
2022/01/17 14:24:47;;;;;;;813.45;472.02;;;;;;;;;;5029226;28;20108;-81
2022/01/17 14:27:18;;;;;;;814.45;473.83;;;;;;;;;;5028848;28;20040;-82
2022/01/17 14:29:48;;;;;;;810.95;464.17;;;;;;;;;;5044698;28;20505;-82